Ashburnham, Massachusetts
Current Conditions -  °F | °C
As of 3:52 PM on Thursday 23 Oct 2014 (Local Time) from KFIT Reporting Station
Light Rain Light Rain  
Wind Chill: 52°   Ceiling: 1500
Heat Index: 52°   Visibility: 5mi
Dew Point: 48°   Wind: 8mph
Humidity: 86%   Direction: 360°N
Pressure: 29.68"   Gusts: NA
Location:  42.64°N, 71.91°W
Report Text: KFIT 231952Z AUTO 36007KT 5SM -RA BR SCT010 OVC015 11/09 A2968 RMK AO2 SLP053 P0003 T01110089
Loading
Personal Weather Stations






























Interactive Weather Map
Tropical Storm Tracking
New forecast layout! Learn more

10-Day Weather Forecast

Advertisements
Track Severe Weather on mobile